Etusivu
METAR-TAF:

METAR-TAF

Lentoasemat :

Regional_Airport

Ruston, Louisiana, Yhdysvallat

Leveyspiiri: 32-30-52N, Pituuspiiri: 092-35-18W, korkeus merenpinnasta: 95 m

Tämänhetkinen sää

Tämä raportti tehtiin 12 minuuttia sitten, kello 12.35 UTC
tyyntä
Lämpötila -1°C
Kosteus 100%
Ilmanpaine 1029 hPa
Näkyvyys: 1.2 km
utua

METAR: KRSN 151235Z AUTO 00000KT 3/4SM BR VV005 M01/M01 A3040 RMK AO2 T10071013

Aika: 06:47 (12:47 UTC)


TAF: puuttuu

Säähavainnot ja -ennusteet yli 4000 lentoasemalta (METAR- ja TAF-raportit).

Käytössä olevat sääasemat on merkitty karttaan keltaisilla ja punaisilla pisteillä.

Aseta hiiri pisteen päälle nähdäksesi sääaseman nimen.

Klikkaa sitten nähdäksesi säähavainnot ja -ennusteet.

Kartan vaihtaminen: klikkaa mustalla rastilla varustettuja vihreitä pisteitä, niin voit zoomata sisään; viivalla varustettua vihreää pistettä, niin voit zoomata ulos tai vihreitä nuolia, niin pääset viereisille kartoille.


METAR-TAF: